CheckWX is a tool to help pilots better visualize weather data.  It is not intended as a substitute for an official pre-flight weather briefing.

09:02:42 UTC

ENHE TAF
Heidrun Airport
Norway
TAF ENHE 180800Z 1809/1818 22032KT 9999 -SHRA FEW015 BKN045 TEMPO 1809/1818 4000 SHRA BKN012CB

Feb-18@
09:00 UTC

Feb-18 @ 09:00 UTC

Feb-18@
18:00 UTC

Feb-18 @ 18:00 UTC

TAF ENHE 180800Z 1809/1818 22032KT 9999 -SHRA FEW015 BKN045
Wind
  • 220° at 32 KTS
Visibility
10,000+ meters
Conditions
Light Rain
Cloud Levels
  • Few at 1,500' AGL
  • Broken at 4,500' AGL

Feb-18@
09:00 UTC

Feb-18 @ 09:00 UTC

Feb-18@
18:00 UTC

Feb-18 @ 18:00 UTC

TEMPO 1809/1818 4000 SHRA BKN012CB

Temporary

TemporaryChanges expected for less than half the time period

Visibility
4,007 meters
Conditions
Rain
Cloud Levels
  • Broken at 1,200' AGL